Archival Weather

Snohomish County (Paine Fld)

Everett, Washington (KPAE)

Report from: Friday, November 17, 2023 9:53 PM PST
Current time: Monday, June 24, 2024 2:00 AM PDT

Current weather – Weather history – Daily summaries
Weather forecast

Temperature3.9°C (39.0°F)
Dew point1.1°C (34.0°F)
Winds Calm
Visibility10 mi. (16.1 km)
Clouds Sky clear
Altimeter29.91 in.Hg (1013 mB)
Relative humidity82 %
Density altitude-1,244 ft. (-379 m)
Sea-level pressure101.3 kPa (1013 mB, 29.92 in.Hg)
Max temp last 6 hours8.3°C (46.9°F)
Min temp last 6 hours3.9°C (39.0°F)
Remarks Fully automated report
Automated weather observing station with precipitation discriminator
Pressure falling more slowly
Flight conditions Visual Meteorological Conditions
Raw dataKPAE 180553Z AUTO 00000KT 10SM CLR 04/01 A2991 RMK AO2 SLP132 T00390011 10083 20039 56010
An error has occurred. This application may no longer respond until reloaded. Reload 🗙